createdAt,value
2023-10-29T00:00:47.628Z,0.00
2023-10-29T00:01:47.686Z,0.00
2023-10-29T00:02:47.640Z,0.00
2023-10-29T00:03:47.712Z,0.00
2023-10-29T00:04:47.722Z,0.00
2023-10-29T00:05:47.619Z,0.00
2023-10-29T00:06:47.569Z,0.00
2023-10-29T00:07:48.574Z,0.00
2023-10-29T00:08:47.611Z,0.00
2023-10-29T00:09:47.572Z,0.00
2023-10-29T00:10:47.551Z,0.00
2023-10-29T00:11:47.581Z,0.00
2023-10-29T00:12:47.563Z,0.00
2023-10-29T00:13:47.573Z,0.00
2023-10-29T00:14:47.717Z,0.00
2023-10-29T00:15:47.555Z,0.00
2023-10-29T00:16:47.498Z,0.00
2023-10-29T00:17:47.551Z,0.00
2023-10-29T00:18:47.486Z,0.00
2023-10-29T00:19:47.518Z,0.00
2023-10-29T00:20:47.490Z,0.00
2023-10-29T00:21:47.458Z,0.00
2023-10-29T00:22:47.478Z,0.00
2023-10-29T00:23:47.517Z,0.00
2023-10-29T00:24:47.600Z,0.00
2023-10-29T00:25:47.428Z,0.00
2023-10-29T00:26:47.438Z,0.00
2023-10-29T00:27:47.482Z,0.00
2023-10-29T00:28:47.419Z,0.00
2023-10-29T00:29:47.436Z,0.00
2023-10-29T00:30:47.403Z,0.00
2023-10-29T00:31:47.409Z,0.00
2023-10-29T00:32:47.477Z,0.00
2023-10-29T00:33:47.370Z,0.00
2023-10-29T00:34:47.488Z,0.00
2023-10-29T00:35:47.365Z,0.00
2023-10-29T00:36:47.382Z,0.00
2023-10-29T00:37:47.331Z,0.00
2023-10-29T00:38:47.343Z,0.00
2023-10-29T00:39:47.317Z,0.00
2023-10-29T00:40:47.318Z,0.00
2023-10-29T00:41:47.321Z,0.00
2023-10-29T00:42:47.301Z,0.00
2023-10-29T00:43:47.285Z,0.00
2023-10-29T00:44:47.625Z,0.00
2023-10-29T00:45:47.337Z,0.00
2023-10-29T00:46:47.290Z,0.00
2023-10-29T00:47:47.293Z,0.00
2023-10-29T00:48:47.272Z,0.00
2023-10-29T00:49:47.242Z,0.00
2023-10-29T00:50:47.266Z,0.00
2023-10-29T00:51:47.221Z,0.00
2023-10-29T00:52:47.212Z,0.00
2023-10-29T00:53:47.214Z,0.00
2023-10-29T00:54:47.372Z,0.00
2023-10-29T00:55:47.218Z,0.00
2023-10-29T00:56:47.223Z,0.00
2023-10-29T00:57:47.172Z,0.00
2023-10-29T00:58:47.170Z,0.00
2023-10-29T00:59:47.257Z,0.00
2023-10-29T01:00:47.180Z,0.00
2023-10-29T01:01:47.146Z,0.00
2023-10-29T01:02:47.250Z,0.00
2023-10-29T01:03:47.224Z,0.00
2023-10-29T01:04:47.390Z,0.00
2023-10-29T01:05:47.198Z,0.00
2023-10-29T01:06:47.108Z,0.00
2023-10-29T01:07:47.091Z,0.00
2023-10-29T01:08:48.123Z,0.00
2023-10-29T01:09:47.111Z,0.00
2023-10-29T01:10:47.081Z,0.00
2023-10-29T01:11:47.134Z,0.00
2023-10-29T01:12:47.060Z,0.00
2023-10-29T01:13:47.077Z,0.00
2023-10-29T01:14:47.486Z,0.00
2023-10-29T01:15:47.054Z,0.00
2023-10-29T01:16:47.032Z,0.00
2023-10-29T01:17:47.083Z,0.00
2023-10-29T01:18:47.038Z,0.00
2023-10-29T01:19:47.006Z,0.00
2023-10-29T01:20:47.055Z,0.00
2023-10-29T01:21:46.992Z,0.00
2023-10-29T01:22:46.980Z,0.00
2023-10-29T01:23:47.069Z,0.00
2023-10-29T01:24:47.177Z,0.00
2023-10-29T01:25:46.962Z,0.00
2023-10-29T01:26:46.987Z,0.00
2023-10-29T01:27:47.005Z,0.00
2023-10-29T01:28:46.961Z,0.00
2023-10-29T01:29:46.947Z,0.00
2023-10-29T01:30:46.920Z,0.00
2023-10-29T01:31:46.906Z,0.00
2023-10-29T01:32:47.008Z,0.00
2023-10-29T01:33:46.890Z,0.00
2023-10-29T01:34:47.082Z,0.00
2023-10-29T01:35:46.913Z,0.00
2023-10-29T01:36:46.867Z,0.00
2023-10-29T01:37:46.889Z,0.00
2023-10-29T01:38:46.921Z,0.00
2023-10-29T01:39:46.837Z,0.00
2023-10-29T01:40:46.840Z,0.00
2023-10-29T01:41:46.903Z,0.00
2023-10-29T01:42:46.848Z,0.00
2023-10-29T01:43:46.817Z,0.00
2023-10-29T01:44:46.981Z,0.00
2023-10-29T01:45:46.812Z,0.00
2023-10-29T01:46:46.809Z,0.00
2023-10-29T01:47:46.891Z,0.00
2023-10-29T01:48:46.777Z,0.00
2023-10-29T01:49:46.773Z,0.00
2023-10-29T01:50:46.784Z,0.00
2023-10-29T01:51:46.770Z,0.00
2023-10-29T01:52:46.741Z,0.00
2023-10-29T01:53:46.765Z,0.00
2023-10-29T01:54:46.839Z,0.00
2023-10-29T01:55:47.714Z,0.00
2023-10-29T01:56:46.786Z,0.00
2023-10-29T01:57:47.698Z,0.00
2023-10-29T01:58:46.697Z,0.00
2023-10-29T01:59:46.752Z,0.00
2023-10-29T02:00:46.703Z,0.00
2023-10-29T02:01:46.695Z,0.00
2023-10-29T02:02:46.841Z,0.00
2023-10-29T02:03:46.756Z,0.00
2023-10-29T02:04:46.764Z,0.00
2023-10-29T02:05:46.730Z,0.00
2023-10-29T02:06:46.628Z,0.00
2023-10-29T02:07:46.622Z,0.00
2023-10-29T02:08:46.678Z,0.00
2023-10-29T02:09:46.611Z,0.00
2023-10-29T02:10:46.642Z,0.00
2023-10-29T02:11:46.656Z,0.00
2023-10-29T02:12:46.584Z,0.00
2023-10-29T02:13:46.570Z,0.00
2023-10-29T02:14:46.814Z,0.00
2023-10-29T02:15:46.591Z,0.00
2023-10-29T02:16:46.551Z,0.00
2023-10-29T02:17:46.588Z,0.00
2023-10-29T02:18:46.535Z,0.00
2023-10-29T02:19:46.550Z,0.00
2023-10-29T02:20:46.580Z,0.00
2023-10-29T02:21:46.509Z,0.00
2023-10-29T02:22:46.502Z,0.00
2023-10-29T02:23:46.507Z,0.00
2023-10-29T02:24:46.790Z,0.00
2023-10-29T02:25:46.479Z,0.00
2023-10-29T02:26:46.490Z,0.00
2023-10-29T02:27:46.469Z,0.00
2023-10-29T02:28:46.488Z,0.00
2023-10-29T02:29:46.601Z,0.00
2023-10-29T02:30:46.441Z,0.00
2023-10-29T02:31:46.457Z,0.00
2023-10-29T02:32:46.454Z,0.00
2023-10-29T02:33:46.472Z,0.00
2023-10-29T02:34:46.609Z,0.00
2023-10-29T02:35:46.420Z,0.00
2023-10-29T02:36:46.394Z,0.00
2023-10-29T02:37:46.392Z,0.00
2023-10-29T02:38:46.433Z,0.00
2023-10-29T02:39:46.373Z,0.00
2023-10-29T02:40:46.370Z,0.00
2023-10-29T02:41:46.366Z,0.00
2023-10-29T02:42:46.384Z,0.00
2023-10-29T02:43:46.366Z,0.00
2023-10-29T02:44:46.493Z,0.00
2023-10-29T02:45:46.348Z,0.00
2023-10-29T02:46:46.334Z,0.00
2023-10-29T02:47:46.386Z,0.00
2023-10-29T02:48:46.304Z,0.00
2023-10-29T02:49:46.294Z,0.00
2023-10-29T02:50:46.320Z,0.00
2023-10-29T02:51:46.280Z,0.00
2023-10-29T02:52:46.300Z,0.00
2023-10-29T02:53:46.342Z,0.00
2023-10-29T02:54:46.371Z,0.00
2023-10-29T02:55:46.252Z,0.00
2023-10-29T02:56:46.284Z,0.00
2023-10-29T02:57:46.267Z,0.00
2023-10-29T02:58:46.226Z,0.00
2023-10-29T02:59:46.287Z,0.00
2023-10-29T03:00:46.212Z,0.00
2023-10-29T03:01:46.233Z,0.00
2023-10-29T03:02:46.317Z,0.00
2023-10-29T03:03:46.336Z,0.00
2023-10-29T03:04:46.433Z,0.00
2023-10-29T03:05:56.081Z,0.00
2023-10-29T03:06:48.195Z,0.00
2023-10-29T03:07:46.159Z,0.00
2023-10-29T03:08:46.168Z,0.00
2023-10-29T03:09:46.142Z,0.00
2023-10-29T03:10:46.133Z,0.00
2023-10-29T03:11:46.183Z,0.00
2023-10-29T03:12:46.120Z,0.00
2023-10-29T03:13:46.110Z,0.00
2023-10-29T03:14:46.262Z,0.00
2023-10-29T03:15:46.218Z,0.00
2023-10-29T03:16:46.112Z,0.00
2023-10-29T03:17:46.133Z,0.00
2023-10-29T03:18:46.456Z,0.00
2023-10-29T03:19:46.069Z,0.00
2023-10-29T03:20:46.145Z,0.00
2023-10-29T03:21:46.048Z,0.00
2023-10-29T03:22:46.046Z,0.00
2023-10-29T03:23:46.087Z,0.00
2023-10-29T03:24:46.314Z,0.00
2023-10-29T03:25:46.176Z,0.00
2023-10-29T03:26:46.017Z,0.00
2023-10-29T03:27:45.997Z,0.00
2023-10-29T03:28:45.994Z,0.00
2023-10-29T03:29:46.015Z,0.00
2023-10-29T03:30:46.002Z,0.00
2023-10-29T03:31:45.994Z,0.00
2023-10-29T03:32:46.005Z,0.00
2023-10-29T03:33:45.961Z,0.00
2023-10-29T03:34:46.221Z,0.00
2023-10-29T03:35:45.977Z,0.00
2023-10-29T03:36:45.933Z,0.00
2023-10-29T03:37:45.931Z,0.00
2023-10-29T03:38:45.932Z,0.00
2023-10-29T03:39:45.938Z,0.00
2023-10-29T03:40:45.903Z,0.00
2023-10-29T03:41:45.920Z,0.00
2023-10-29T03:42:45.885Z,0.00
2023-10-29T03:43:45.900Z,0.00
2023-10-29T03:44:46.115Z,0.00
2023-10-29T03:45:45.863Z,0.00
2023-10-29T03:46:45.853Z,0.00
2023-10-29T03:47:45.905Z,0.00
2023-10-29T03:48:45.874Z,0.00
2023-10-29T03:49:45.830Z,0.00
2023-10-29T03:50:45.914Z,0.00
2023-10-29T03:51:45.817Z,0.00
2023-10-29T03:52:45.809Z,0.00
2023-10-29T03:53:45.874Z,0.00
2023-10-29T03:54:45.931Z,0.00
2023-10-29T03:55:45.799Z,0.00
2023-10-29T03:56:45.843Z,0.00
2023-10-29T03:57:45.797Z,0.00
2023-10-29T03:58:45.787Z,0.00
2023-10-29T03:59:45.802Z,0.00
2023-10-29T04:00:45.744Z,0.00
2023-10-29T04:01:45.752Z,0.00
2023-10-29T04:02:45.808Z,0.00
2023-10-29T04:03:45.851Z,0.00
2023-10-29T04:05:01.729Z,0.00
2023-10-29T04:05:47.733Z,0.00
2023-10-29T04:06:45.698Z,0.00
2023-10-29T04:07:45.717Z,0.00
2023-10-29T04:08:45.703Z,0.00
2023-10-29T04:09:45.671Z,0.00
2023-10-29T04:10:45.670Z,0.00
2023-10-29T04:11:45.727Z,0.00
2023-10-29T04:12:45.675Z,0.00
2023-10-29T04:13:45.657Z,0.00
2023-10-29T04:14:45.742Z,0.00
2023-10-29T04:15:45.639Z,0.00
2023-10-29T04:16:45.646Z,0.00
2023-10-29T04:17:45.655Z,0.00
2023-10-29T04:18:45.608Z,0.00
2023-10-29T04:19:45.601Z,0.00
2023-10-29T04:20:45.614Z,0.00
2023-10-29T04:21:45.608Z,0.00
2023-10-29T04:22:45.575Z,0.00
2023-10-29T04:23:45.575Z,0.00
2023-10-29T04:24:45.587Z,0.00
2023-10-29T04:25:45.577Z,0.00
2023-10-29T04:26:45.610Z,0.00
2023-10-29T04:27:45.534Z,0.00
2023-10-29T04:28:45.532Z,0.00
2023-10-29T04:29:45.558Z,0.00
2023-10-29T04:30:45.633Z,0.00
2023-10-29T04:31:45.504Z,0.00
2023-10-29T04:32:45.567Z,0.00
2023-10-29T04:33:46.512Z,0.00
2023-10-29T04:34:45.522Z,0.00
2023-10-29T04:35:45.589Z,0.00
2023-10-29T04:36:45.457Z,0.00
2023-10-29T04:37:45.449Z,0.00
2023-10-29T04:38:45.461Z,0.00
2023-10-29T04:39:45.461Z,0.00
2023-10-29T04:40:45.451Z,0.00
2023-10-29T04:41:45.445Z,0.00
2023-10-29T04:42:45.419Z,0.00
2023-10-29T04:43:45.411Z,0.00
2023-10-29T04:44:45.482Z,0.00
2023-10-29T04:45:45.415Z,0.00
2023-10-29T04:46:45.379Z,0.00
2023-10-29T04:47:45.474Z,0.00
2023-10-29T04:48:45.401Z,0.00
2023-10-29T04:49:45.443Z,0.00
2023-10-29T04:50:45.408Z,0.00
2023-10-29T04:51:45.340Z,0.00
2023-10-29T04:52:45.331Z,0.00
2023-10-29T04:53:45.366Z,0.00
2023-10-29T04:54:45.384Z,0.00
2023-10-29T04:55:45.312Z,0.00
2023-10-29T04:56:45.318Z,0.00
2023-10-29T04:57:45.296Z,0.00
2023-10-29T04:58:45.334Z,0.00
2023-10-29T04:59:45.333Z,0.00
2023-10-29T05:00:45.271Z,0.00
2023-10-29T05:01:45.284Z,0.00
2023-10-29T05:02:45.372Z,0.00
2023-10-29T05:03:45.365Z,0.00
2023-10-29T05:04:45.396Z,0.00
2023-10-29T05:05:45.250Z,0.00
2023-10-29T05:06:45.220Z,0.00
2023-10-29T05:07:45.215Z,0.00
2023-10-29T05:08:45.324Z,0.00
2023-10-29T05:09:45.204Z,0.00
2023-10-29T05:10:45.220Z,0.00
2023-10-29T05:11:45.226Z,0.00
2023-10-29T05:12:45.199Z,0.00
2023-10-29T05:13:45.196Z,0.00
2023-10-29T05:14:45.198Z,0.00
2023-10-29T05:15:45.155Z,0.00
2023-10-29T05:16:45.192Z,0.00
2023-10-29T05:17:45.225Z,0.00
2023-10-29T05:18:45.126Z,0.00
2023-10-29T05:19:45.537Z,0.00
2023-10-29T05:20:45.147Z,0.00
2023-10-29T05:21:45.122Z,0.00
2023-10-29T05:22:45.119Z,0.00
2023-10-29T05:23:45.119Z,0.00
2023-10-29T05:24:45.140Z,0.00
2023-10-29T05:25:45.070Z,0.00
2023-10-29T05:26:45.093Z,0.00
2023-10-29T05:27:45.092Z,0.00
2023-10-29T05:28:45.047Z,0.00
2023-10-29T05:29:45.091Z,0.00
2023-10-29T05:30:45.054Z,0.00
2023-10-29T05:31:45.052Z,0.00
2023-10-29T05:32:45.107Z,0.00
2023-10-29T05:33:45.014Z,0.00
2023-10-29T05:34:45.003Z,0.00
2023-10-29T05:35:45.034Z,0.00
2023-10-29T05:36:45.037Z,0.00
2023-10-29T05:37:45.018Z,0.00
2023-10-29T05:38:44.991Z,0.00
2023-10-29T05:39:44.970Z,0.00
2023-10-29T05:40:44.972Z,0.00
2023-10-29T05:41:45.000Z,0.00
2023-10-29T05:42:44.943Z,0.00
2023-10-29T05:43:44.945Z,0.00
2023-10-29T05:44:44.947Z,0.00
2023-10-29T05:45:44.953Z,4.00
2023-10-29T05:46:44.952Z,4.00
2023-10-29T05:47:44.964Z,4.00
2023-10-29T05:48:44.925Z,4.00
2023-10-29T05:49:44.891Z,4.00
2023-10-29T05:50:44.949Z,8.00
2023-10-29T05:51:44.904Z,8.00
2023-10-29T05:52:44.873Z,8.00
2023-10-29T05:53:44.876Z,12.00
2023-10-29T05:54:44.853Z,16.00
2023-10-29T05:55:44.889Z,20.00
2023-10-29T05:56:44.854Z,24.00
2023-10-29T05:57:44.827Z,24.00
2023-10-29T05:58:44.832Z,24.00
2023-10-29T05:59:44.864Z,28.00
2023-10-29T06:00:44.903Z,32.00
2023-10-29T06:01:44.796Z,36.00
2023-10-29T06:02:44.860Z,40.00
2023-10-29T06:03:45.041Z,44.00
2023-10-29T06:04:44.871Z,44.00
2023-10-29T06:05:44.784Z,48.00
2023-10-29T06:06:44.754Z,44.00
2023-10-29T06:07:44.760Z,48.00
2023-10-29T06:08:44.788Z,52.00
2023-10-29T06:09:44.756Z,52.00
2023-10-29T06:10:44.735Z,60.00
2023-10-29T06:11:44.749Z,64.00
2023-10-29T06:12:44.718Z,68.00
2023-10-29T06:13:44.732Z,68.00
2023-10-29T06:14:44.734Z,76.00
2023-10-29T06:15:44.693Z,84.00
2023-10-29T06:16:44.713Z,88.00
2023-10-29T06:17:44.741Z,96.00
2023-10-29T06:18:44.763Z,104.00
2023-10-29T06:19:44.673Z,108.00
2023-10-29T06:20:44.699Z,112.00
2023-10-29T06:21:44.652Z,116.00
2023-10-29T06:22:45.375Z,116.00
2023-10-29T06:23:44.686Z,120.00
2023-10-29T06:24:44.624Z,120.00
2023-10-29T06:25:44.618Z,124.00
2023-10-29T06:26:44.638Z,124.00
2023-10-29T06:27:44.627Z,132.00
2023-10-29T06:28:44.621Z,132.00
2023-10-29T06:29:44.670Z,128.00
2023-10-29T06:30:44.605Z,124.00
2023-10-29T06:31:44.575Z,120.00
2023-10-29T06:32:44.652Z,112.00
2023-10-29T06:33:44.551Z,112.00
2023-10-29T06:34:44.544Z,112.00
2023-10-29T06:35:44.594Z,108.00
2023-10-29T06:36:44.532Z,104.00
2023-10-29T06:37:44.561Z,104.00
2023-10-29T06:38:44.551Z,104.00
2023-10-29T06:39:44.505Z,100.00
2023-10-29T06:40:44.499Z,96.00
2023-10-29T06:41:44.543Z,96.00
2023-10-29T06:42:44.507Z,92.00
2023-10-29T06:43:44.481Z,92.00
2023-10-29T06:44:44.496Z,92.00
2023-10-29T06:45:44.475Z,96.00
2023-10-29T06:46:44.545Z,100.00
2023-10-29T06:47:44.511Z,104.00
2023-10-29T06:48:44.429Z,112.00
2023-10-29T06:49:44.421Z,116.00
2023-10-29T06:50:44.430Z,120.00
2023-10-29T06:51:44.439Z,132.00
2023-10-29T06:52:44.399Z,136.00
2023-10-29T06:53:44.403Z,140.00
2023-10-29T06:54:44.383Z,148.00
2023-10-29T06:55:44.379Z,160.00
2023-10-29T06:56:44.553Z,176.00
2023-10-29T06:57:44.376Z,188.00
2023-10-29T06:58:44.357Z,200.00
2023-10-29T06:59:44.364Z,208.00
2023-10-29T07:00:44.365Z,212.00
2023-10-29T07:01:44.359Z,212.00
2023-10-29T07:02:44.426Z,220.00
2023-10-29T07:03:44.436Z,228.00
2023-10-29T07:04:44.342Z,236.00
2023-10-29T07:05:44.374Z,248.00
2023-10-29T07:06:44.523Z,260.00
2023-10-29T07:07:44.285Z,272.00
2023-10-29T07:08:44.314Z,280.00
2023-10-29T07:09:44.271Z,288.00
2023-10-29T07:10:44.289Z,292.00
2023-10-29T07:11:44.292Z,304.00
2023-10-29T07:12:44.259Z,312.00
2023-10-29T07:13:44.243Z,316.00
2023-10-29T07:14:44.294Z,324.00
2023-10-29T07:15:44.274Z,332.00
2023-10-29T07:16:44.224Z,340.00
2023-10-29T07:17:44.320Z,356.00
2023-10-29T07:18:44.281Z,364.00
2023-10-29T07:19:44.242Z,372.00
2023-10-29T07:20:44.201Z,380.00
2023-10-29T07:21:44.174Z,384.00
2023-10-29T07:22:44.176Z,388.00
2023-10-29T07:23:44.172Z,396.00
2023-10-29T07:24:44.187Z,400.00
2023-10-29T07:25:44.152Z,404.00
2023-10-29T07:26:44.183Z,400.00
2023-10-29T07:27:44.131Z,400.00
2023-10-29T07:28:44.132Z,408.00
2023-10-29T07:29:44.177Z,412.00
2023-10-29T07:30:44.116Z,420.00
2023-10-29T07:31:44.123Z,440.00
2023-10-29T07:32:44.157Z,452.00
2023-10-29T07:33:44.108Z,472.00
2023-10-29T07:34:44.101Z,484.00
2023-10-29T07:35:44.147Z,512.00
2023-10-29T07:36:44.197Z,612.00
2023-10-29T07:37:44.061Z,728.00
2023-10-29T07:38:44.103Z,804.00
2023-10-29T07:39:44.036Z,868.00
2023-10-29T07:40:44.037Z,932.00
2023-10-29T07:41:44.074Z,1020.00
2023-10-29T07:42:44.016Z,1108.00
2023-10-29T07:43:44.029Z,1188.00
2023-10-29T07:44:44.001Z,1260.00
2023-10-29T07:45:44.097Z,1304.00
2023-10-29T07:46:43.985Z,1276.00
2023-10-29T07:47:44.038Z,1236.00
2023-10-29T07:48:44.005Z,1248.00
2023-10-29T07:49:43.963Z,1192.00
2023-10-29T07:50:43.986Z,1168.00
2023-10-29T07:51:43.943Z,1144.00
2023-10-29T07:52:43.974Z,1172.00
2023-10-29T07:53:43.960Z,1148.00
2023-10-29T07:54:43.917Z,1156.00
2023-10-29T07:55:43.917Z,1160.00
2023-10-29T07:56:43.949Z,1236.00
2023-10-29T07:57:43.917Z,1260.00
2023-10-29T07:58:43.891Z,1376.00
2023-10-29T07:59:43.920Z,1444.00
2023-10-29T08:00:43.877Z,1500.00
2023-10-29T08:01:43.972Z,1504.00
2023-10-29T08:02:44.032Z,1600.00
2023-10-29T08:03:43.962Z,1636.00
2023-10-29T08:04:43.848Z,1664.00
2023-10-29T08:05:43.854Z,1756.00
2023-10-29T08:06:43.849Z,1792.00
2023-10-29T08:07:43.853Z,1800.00
2023-10-29T08:08:43.849Z,1840.00
2023-10-29T08:09:43.798Z,2056.00
2023-10-29T08:10:43.794Z,2164.00
2023-10-29T08:11:43.858Z,2052.00
2023-10-29T08:12:43.778Z,1948.00
2023-10-29T08:13:43.770Z,1772.00
2023-10-29T08:14:43.806Z,1836.00
2023-10-29T08:15:44.024Z,1788.00
2023-10-29T08:16:44.796Z,1872.00
2023-10-29T08:17:43.858Z,1876.00
2023-10-29T08:18:43.811Z,2092.00
2023-10-29T08:19:43.721Z,2252.00
2023-10-29T08:20:43.753Z,2452.00
2023-10-29T08:21:43.715Z,2500.00
2023-10-29T08:22:45.919Z,2520.00
2023-10-29T08:23:44.768Z,2564.00
2023-10-29T08:24:43.680Z,2624.00
2023-10-29T08:25:43.699Z,2732.00
2023-10-29T08:26:43.712Z,2756.00
2023-10-29T08:27:43.655Z,2724.00
2023-10-29T08:28:43.649Z,2600.00
2023-10-29T08:29:43.713Z,2436.00
2023-10-29T08:30:43.683Z,2684.00
2023-10-29T08:31:43.694Z,2764.00
2023-10-29T08:32:43.688Z,2680.00
2023-10-29T08:33:43.620Z,2808.00
2023-10-29T08:34:43.630Z,2908.00
2023-10-29T08:35:43.637Z,2900.00
2023-10-29T08:36:43.592Z,2824.00
2023-10-29T08:37:46.071Z,2680.00
2023-10-29T08:38:43.602Z,2496.00
2023-10-29T08:39:43.593Z,2352.00
2023-10-29T08:40:43.563Z,2284.00
2023-10-29T08:41:43.577Z,2440.00
2023-10-29T08:42:43.548Z,2424.00
2023-10-29T08:43:43.569Z,2408.00
2023-10-29T08:44:43.642Z,2356.00
2023-10-29T08:45:43.624Z,2276.00
2023-10-29T08:46:43.528Z,2224.00
2023-10-29T08:47:43.578Z,2160.00
2023-10-29T08:48:43.554Z,2072.00
2023-10-29T08:49:43.497Z,2072.00
2023-10-29T08:50:43.497Z,2176.00
2023-10-29T08:51:43.470Z,2428.00
2023-10-29T08:52:43.459Z,2920.00
2023-10-29T08:53:44.499Z,3580.00
2023-10-29T08:54:43.452Z,4680.00
2023-10-29T08:55:43.436Z,5780.00
2023-10-29T08:56:43.453Z,6140.00
2023-10-29T08:57:43.426Z,6572.00
2023-10-29T08:58:43.454Z,7060.00
2023-10-29T08:59:43.458Z,6980.00
2023-10-29T09:00:46.991Z,7128.00
2023-10-29T09:01:44.431Z,6648.00
2023-10-29T09:02:43.501Z,5796.00
2023-10-29T09:03:43.564Z,4996.00
2023-10-29T09:04:43.375Z,4628.00
2023-10-29T09:05:43.438Z,4564.00
2023-10-29T09:06:43.351Z,4844.00
2023-10-29T09:07:44.372Z,5224.00
2023-10-29T09:08:43.367Z,5576.00
2023-10-29T09:09:43.334Z,6120.00
2023-10-29T09:10:43.807Z,6132.00
2023-10-29T09:11:43.341Z,6116.00
2023-10-29T09:12:43.331Z,6100.00
2023-10-29T09:13:43.302Z,6248.00
2023-10-29T09:14:43.316Z,6328.00
2023-10-29T09:15:43.358Z,6576.00
2023-10-29T09:16:43.313Z,6772.00
2023-10-29T09:17:43.350Z,6732.00
2023-10-29T09:18:43.299Z,6748.00
2023-10-29T09:19:43.257Z,6852.00
2023-10-29T09:20:43.256Z,6936.00
2023-10-29T09:21:43.270Z,7012.00
2023-10-29T09:22:43.238Z,7260.00
2023-10-29T09:23:43.229Z,7420.00
2023-10-29T09:24:43.246Z,7640.00
2023-10-29T09:25:43.242Z,7744.00
2023-10-29T09:26:43.277Z,7244.00
2023-10-29T09:27:43.203Z,7168.00
2023-10-29T09:28:43.190Z,7384.00
2023-10-29T09:29:43.217Z,7444.00
2023-10-29T09:30:43.211Z,7460.00
2023-10-29T09:31:43.239Z,7436.00
2023-10-29T09:32:43.192Z,7336.00
2023-10-29T09:33:43.187Z,7280.00
2023-10-29T09:34:43.144Z,7200.00
2023-10-29T09:35:43.179Z,7144.00
2023-10-29T09:36:43.131Z,7264.00
2023-10-29T09:37:43.118Z,7372.00
2023-10-29T09:38:43.114Z,7480.00
2023-10-29T09:39:43.100Z,7552.00
2023-10-29T09:40:43.114Z,7500.00
2023-10-29T09:41:43.127Z,7288.00
2023-10-29T09:42:43.081Z,7628.00
2023-10-29T09:43:43.067Z,7980.00
2023-10-29T09:44:43.111Z,8256.00
2023-10-29T09:45:43.110Z,8404.00
2023-10-29T09:46:43.049Z,8412.00
2023-10-29T09:47:43.097Z,8440.00
2023-10-29T09:48:43.069Z,8348.00
2023-10-29T09:49:43.053Z,8144.00
2023-10-29T09:50:43.048Z,7876.00
2023-10-29T09:51:43.032Z,7688.00
2023-10-29T09:52:43.008Z,7488.00
2023-10-29T09:53:43.060Z,7272.00
2023-10-29T09:54:43.041Z,6856.00
2023-10-29T09:55:42.981Z,6412.00
2023-10-29T09:56:43.000Z,5948.00
2023-10-29T09:57:42.968Z,5872.00
2023-10-29T09:58:42.955Z,6044.00
2023-10-29T09:59:43.027Z,6324.00
2023-10-29T10:00:42.946Z,6308.00
2023-10-29T10:01:57.558Z,6360.00
2023-10-29T10:02:45.055Z,6472.00
2023-10-29T10:03:43.021Z,6552.00
2023-10-29T10:04:42.933Z,6484.00
2023-10-29T10:05:42.915Z,6280.00
2023-10-29T10:06:42.899Z,6632.00
2023-10-29T10:07:42.895Z,6764.00
2023-10-29T10:08:42.929Z,6712.00
2023-10-29T10:09:42.894Z,6676.00
2023-10-29T10:10:42.862Z,6912.00
2023-10-29T10:11:42.869Z,7188.00
2023-10-29T10:12:42.843Z,7424.00
2023-10-29T10:13:43.281Z,7568.00
2023-10-29T10:14:42.835Z,7692.00
2023-10-29T10:15:42.822Z,7800.00
2023-10-29T10:16:42.823Z,7872.00
2023-10-29T10:17:42.896Z,7816.00
2023-10-29T10:18:42.845Z,7680.00
2023-10-29T10:19:42.796Z,7484.00
2023-10-29T10:20:42.802Z,7332.00
2023-10-29T10:21:42.776Z,7244.00
2023-10-29T10:22:42.815Z,7124.00
2023-10-29T10:23:42.832Z,6956.00
2023-10-29T10:24:42.749Z,6852.00
2023-10-29T10:25:42.754Z,6744.00
2023-10-29T10:26:42.754Z,6700.00
2023-10-29T10:27:42.749Z,6696.00
2023-10-29T10:28:42.719Z,6664.00
2023-10-29T10:29:42.731Z,6608.00
2023-10-29T10:30:42.700Z,6456.00
2023-10-29T10:31:42.774Z,6196.00
2023-10-29T10:32:42.766Z,5944.00
2023-10-29T10:33:42.692Z,5740.00
2023-10-29T10:34:42.669Z,5552.00
2023-10-29T10:35:42.679Z,5360.00
2023-10-29T10:36:42.707Z,5172.00
2023-10-29T10:37:42.651Z,4992.00
2023-10-29T10:38:42.662Z,4832.00
2023-10-29T10:39:42.633Z,4680.00
2023-10-29T10:40:42.629Z,4544.00
2023-10-29T10:41:42.649Z,4432.00
2023-10-29T10:42:42.610Z,4308.00
2023-10-29T10:43:42.602Z,4176.00
2023-10-29T10:44:42.635Z,4032.00
2023-10-29T10:45:42.605Z,3888.00
2023-10-29T10:46:42.605Z,3816.00
2023-10-29T10:47:42.603Z,3828.00
2023-10-29T10:48:42.626Z,3788.00
2023-10-29T10:49:42.559Z,3700.00
2023-10-29T10:50:42.623Z,3660.00
2023-10-29T10:51:42.578Z,3616.00
2023-10-29T10:52:42.539Z,3604.00
2023-10-29T10:53:42.662Z,3548.00
2023-10-29T10:54:43.518Z,3376.00
2023-10-29T10:55:59.516Z,3144.00
2023-10-29T10:56:44.554Z,2988.00
2023-10-29T10:57:42.502Z,2976.00
2023-10-29T10:58:42.501Z,2996.00
2023-10-29T10:59:42.503Z,3068.00
2023-10-29T11:00:42.501Z,3100.00
2023-10-29T11:01:42.511Z,3096.00
2023-10-29T11:02:42.606Z,3004.00
2023-10-29T11:03:42.590Z,2856.00
2023-10-29T11:04:42.654Z,2724.00
2023-10-29T11:05:42.510Z,2668.00
2023-10-29T11:06:42.433Z,2692.00
2023-10-29T11:07:42.422Z,2928.00
2023-10-29T11:08:42.418Z,3324.00
2023-10-29T11:09:42.431Z,3632.00
2023-10-29T11:10:42.392Z,3840.00
2023-10-29T11:11:42.430Z,3896.00
2023-10-29T11:12:42.379Z,3908.00
2023-10-29T11:13:42.368Z,4200.00
2023-10-29T11:14:42.392Z,4612.00
2023-10-29T11:15:42.358Z,4896.00
2023-10-29T11:16:42.392Z,4632.00
2023-10-29T11:17:42.450Z,4056.00
2023-10-29T11:18:42.359Z,3696.00
2023-10-29T11:19:42.352Z,3620.00
2023-10-29T11:20:42.317Z,3752.00
2023-10-29T11:21:42.322Z,4100.00
2023-10-29T11:22:42.300Z,4748.00
2023-10-29T11:23:42.338Z,5508.00
2023-10-29T11:24:42.327Z,6028.00
2023-10-29T11:25:42.279Z,6204.00
2023-10-29T11:26:42.307Z,6208.00
2023-10-29T11:27:42.283Z,6180.00
2023-10-29T11:28:42.279Z,6128.00
2023-10-29T11:29:42.251Z,5980.00
2023-10-29T11:30:42.238Z,5752.00
2023-10-29T11:31:42.254Z,5448.00
2023-10-29T11:32:42.365Z,5152.00
2023-10-29T11:33:42.271Z,4936.00
2023-10-29T11:34:42.204Z,4704.00
2023-10-29T11:35:42.226Z,4396.00
2023-10-29T11:36:42.189Z,4080.00
2023-10-29T11:37:42.250Z,3756.00
2023-10-29T11:38:42.206Z,3408.00
2023-10-29T11:39:42.169Z,3268.00
2023-10-29T11:40:42.165Z,3236.00
2023-10-29T11:41:44.739Z,3284.00
2023-10-29T11:42:42.172Z,3308.00
2023-10-29T11:43:42.137Z,3324.00
2023-10-29T11:44:42.186Z,3332.00
2023-10-29T11:45:42.140Z,3216.00
2023-10-29T11:46:42.109Z,2956.00
2023-10-29T11:47:42.213Z,2620.00
2023-10-29T11:48:42.127Z,2432.00
2023-10-29T11:49:42.087Z,2276.00
2023-10-29T11:50:42.110Z,2184.00
2023-10-29T11:51:42.123Z,2084.00
2023-10-29T11:52:42.095Z,1976.00
2023-10-29T11:53:42.099Z,1808.00
2023-10-29T11:54:42.048Z,1632.00
2023-10-29T11:55:42.039Z,1472.00
2023-10-29T11:56:42.164Z,1348.00
2023-10-29T11:57:42.026Z,1228.00
2023-10-29T11:58:42.017Z,1136.00
2023-10-29T11:59:42.066Z,1068.00
2023-10-29T12:00:42.060Z,1016.00
2023-10-29T12:01:42.021Z,976.00
2023-10-29T12:02:42.013Z,1012.00
2023-10-29T12:03:42.123Z,1096.00
2023-10-29T12:04:42.069Z,1188.00
2023-10-29T12:05:42.063Z,1228.00
2023-10-29T12:06:41.981Z,1228.00
2023-10-29T12:07:41.946Z,1172.00
2023-10-29T12:08:41.959Z,1080.00
2023-10-29T12:09:41.931Z,1004.00
2023-10-29T12:10:41.957Z,976.00
2023-10-29T12:11:41.952Z,980.00
2023-10-29T12:12:42.695Z,1120.00
2023-10-29T12:13:42.961Z,1284.00
2023-10-29T12:14:41.994Z,1368.00
2023-10-29T12:15:41.911Z,1448.00
2023-10-29T12:16:41.916Z,1332.00
2023-10-29T12:17:41.918Z,1192.00
2023-10-29T12:18:41.895Z,1128.00
2023-10-29T12:19:41.878Z,1128.00
2023-10-29T12:20:41.905Z,1140.00
2023-10-29T12:21:41.833Z,1216.00
2023-10-29T12:22:41.843Z,1336.00
2023-10-29T12:23:41.840Z,1508.00
2023-10-29T12:24:41.840Z,1684.00
2023-10-29T12:25:41.807Z,1848.00
2023-10-29T12:26:41.833Z,2000.00
2023-10-29T12:27:41.790Z,1944.00
2023-10-29T12:28:41.785Z,1736.00
2023-10-29T12:29:41.815Z,1572.00
2023-10-29T12:30:41.842Z,1500.00
2023-10-29T12:31:41.785Z,1532.00
2023-10-29T12:32:41.825Z,1564.00
2023-10-29T12:33:42.804Z,1672.00
2023-10-29T12:34:41.761Z,1764.00
2023-10-29T12:35:41.750Z,1820.00
2023-10-29T12:36:41.717Z,1804.00
2023-10-29T12:37:41.728Z,1712.00
2023-10-29T12:38:41.772Z,1740.00
2023-10-29T12:39:41.698Z,1768.00
2023-10-29T12:40:41.689Z,1768.00
2023-10-29T12:41:41.692Z,1908.00
2023-10-29T12:42:41.682Z,2164.00